Time;durP1;ratioP1;P1;durP2;ratioP2;P2;SDS_P1;SDS_P2;PMS_P1;PMS_P2;Temp;Humidity;BMP_temperature;BMP_pressure;BME280_temperature;BME280_humidity;BME280_pressure;Samples;Min_cycle;Max_cycle;Signal;HPM_P1;HPM_P2
2023/03/08 00:00:21;;;;;;;7.15;6.00;;;;;;;-1.18;100.00;91703.03;2564624;23;20009;-82
2023/03/08 00:01:23;;;;;;;7.45;6.10;;;;;;;-1.25;100.00;91697.78;2562923;23;20009;-82
2023/03/08 00:02:24;;;;;;;7.78;5.95;;;;;;;-1.26;100.00;91707.53;2562013;23;20414;-81
2023/03/08 00:03:25;;;;;;;6.72;6.03;;;;;;;-1.12;100.00;91696.25;2560603;23;20008;-82
2023/03/08 00:04:26;;;;;;;7.97;6.22;;;;;;;-1.15;100.00;91697.75;2572709;23;20140;-81
2023/03/08 00:05:28;;;;;;;7.25;5.97;;;;;;;-1.19;100.00;91688.41;2572461;23;20343;-82
2023/03/08 00:06:29;;;;;;;7.30;6.28;;;;;;;-1.12;100.00;91697.00;2585278;22;20419;-83
2023/03/08 00:07:31;;;;;;;7.15;6.22;;;;;;;-1.20;100.00;91692.16;2584448;23;20004;-82
2023/03/08 00:08:32;;;;;;;9.95;6.18;;;;;;;-1.21;100.00;91693.28;2584502;23;20280;-82
2023/03/08 00:09:33;;;;;;;8.77;6.65;;;;;;;-1.23;100.00;91691.03;2585006;23;20004;-82
2023/03/08 00:10:35;;;;;;;6.68;5.78;;;;;;;-1.21;100.00;91695.91;2584462;23;20008;-84
2023/03/08 00:11:36;;;;;;;6.85;6.13;;;;;;;-1.19;100.00;91698.88;2559875;23;20036;-81
2023/03/08 00:12:37;;;;;;;7.28;6.15;;;;;;;-1.29;100.00;91700.41;2571705;23;20094;-81
2023/03/08 00:13:39;;;;;;;7.43;6.03;;;;;;;-1.33;100.00;91707.50;2558826;23;20371;-81
2023/03/08 00:14:40;;;;;;;7.60;6.40;;;;;;;-1.42;100.00;91702.66;2571369;23;20446;-82
2023/03/08 00:15:41;;;;;;;9.15;6.70;;;;;;;-1.04;100.00;91695.13;2571237;23;20023;-81
2023/03/08 00:16:42;;;;;;;7.90;6.40;;;;;;;-1.14;100.00;91695.88;2546834;23;20436;-84
2023/03/08 00:17:43;;;;;;;7.07;5.75;;;;;;;-1.14;100.00;91695.88;2546768;23;20047;-84
2023/03/08 00:18:46;;;;;;;8.70;6.22;;;;;;;-1.17;100.00;91699.28;2558763;23;20056;-82
2023/03/08 00:19:51;;;;;;;5.85;5.10;;;;;;;-0.92;100.00;91693.97;2583687;23;20431;-82
2023/03/08 00:21:00;;;;;;;7.28;5.72;;;;;;;-1.16;100.00;91692.91;2571064;23;20090;-82
2023/03/08 00:22:01;;;;;;;7.90;5.53;;;;;;;-1.09;100.00;91696.25;2549756;23;20306;-82
2023/03/08 00:23:02;;;;;;;8.30;6.15;;;;;;;-1.13;100.00;91692.91;2546534;23;20011;-82
2023/03/08 00:24:04;;;;;;;7.05;5.88;;;;;;;-1.23;100.00;91683.16;2558737;23;20011;-82
2023/03/08 00:25:07;;;;;;;7.68;6.03;;;;;;;-1.35;100.00;91686.19;2583891;22;20000;-82
2023/03/08 00:26:10;;;;;;;8.32;6.13;;;;;;;-1.43;100.00;91689.94;2571078;23;20623;-82
2023/03/08 00:27:20;;;;;;;7.75;5.88;;;;;;;-1.53;100.00;91689.56;2547345;23;20503;-83
2023/03/08 00:28:21;;;;;;;7.72;6.00;;;;;;;-1.47;100.00;91686.56;2560638;23;20012;-82
2023/03/08 00:29:22;;;;;;;7.97;6.63;;;;;;;-1.54;100.00;91682.84;2559050;23;20095;-83
2023/03/08 00:30:23;;;;;;;8.43;6.15;;;;;;;-1.61;100.00;91687.31;2558410;23;20001;-82
2023/03/08 00:31:24;;;;;;;7.55;6.05;;;;;;;-1.65;100.00;91689.94;2558693;23;20013;-82
2023/03/08 00:32:26;;;;;;;8.65;5.90;;;;;;;-1.65;100.00;91689.19;2570982;23;20004;-82
2023/03/08 00:33:29;;;;;;;8.48;6.00;;;;;;;-1.68;100.00;91688.06;2571236;23;20007;-82
2023/03/08 00:34:31;;;;;;;7.47;5.88;;;;;;;-1.68;100.00;91689.94;2572466;23;20054;-82
2023/03/08 00:35:32;;;;;;;8.32;6.20;;;;;;;-1.72;100.00;91681.31;2571716;23;20086;-82
2023/03/08 00:36:34;;;;;;;6.97;6.00;;;;;;;-1.72;100.00;91678.69;2571972;23;20559;-82
2023/03/08 00:37:35;;;;;;;7.57;5.72;;;;;;;-1.73;100.00;91677.94;2559619;23;20408;-82
2023/03/08 00:38:36;;;;;;;8.45;6.35;;;;;;;-1.65;100.00;91676.84;2571526;23;20035;-83
2023/03/08 00:39:37;;;;;;;6.97;6.25;;;;;;;-1.59;100.00;91669.34;2571235;23;20005;-82
2023/03/08 00:40:38;;;;;;;7.40;5.85;;;;;;;-1.54;100.00;91669.72;2546924;23;20048;-82
2023/03/08 00:41:39;;;;;;;8.45;6.38;;;;;;;-1.49;100.00;91673.84;2546487;23;20009;-82
2023/03/08 00:42:40;;;;;;;7.47;5.85;;;;;;;-1.39;100.00;91672.34;2546265;23;20379;-83
2023/03/08 00:43:42;;;;;;;8.35;5.97;;;;;;;-1.43;100.00;91667.09;2571396;22;20021;-82
2023/03/08 00:44:44;;;;;;;8.00;5.95;;;;;;;-1.48;100.00;91661.50;2583568;23;20095;-82
2023/03/08 00:45:45;;;;;;;6.82;5.53;;;;;;;-1.37;100.00;91667.47;2570812;23;20012;-82
2023/03/08 00:46:46;;;;;;;6.97;5.88;;;;;;;-1.29;100.00;91669.69;2558701;23;20009;-82
2023/03/08 00:48:16;;;;;;;7.50;6.28;;;;;;;-1.37;100.00;91664.84;2558407;23;20013;-82
2023/03/08 00:49:18;;;;;;;10.75;6.20;;;;;;;-1.44;100.00;91672.72;2564604;23;20097;-82
2023/03/08 00:50:19;;;;;;;9.02;5.78;;;;;;;-1.15;100.00;91668.16;2546180;23;19997;-81
2023/03/08 00:51:20;;;;;;;7.47;5.93;;;;;;;-1.13;100.00;91671.94;2558765;23;20016;-82
2023/03/08 00:52:21;;;;;;;7.03;5.90;;;;;;;-1.17;100.00;91673.06;2583303;22;20011;-82
2023/03/08 00:53:22;;;;;;;7.03;6.20;;;;;;;-1.21;100.00;91670.44;2595933;22;20019;-82
2023/03/08 00:54:24;;;;;;;6.82;5.40;;;;;;;-1.21;100.00;91665.19;2558503;23;20359;-82
2023/03/08 00:55:25;;;;;;;6.60;5.90;;;;;;;-1.25;100.00;91667.06;2546364;23;20075;-82
2023/03/08 00:56:26;;;;;;;7.05;5.78;;;;;;;-1.27;100.00;91656.97;2570837;23;20074;-81
2023/03/08 00:57:27;;;;;;;6.45;5.72;;;;;;;-1.18;100.00;91653.22;2570819;23;20004;-82
2023/03/08 00:58:30;;;;;;;6.38;5.75;;;;;;;-1.11;100.00;91664.41;2570750;23;20001;-82
2023/03/08 00:59:31;;;;;;;7.65;6.10;;;;;;;-1.07;100.00;91662.53;2570313;23;20063;-83
2023/03/08 01:00:31;;;;;;;7.07;5.95;;;;;;;-0.96;100.00;91661.78;2558699;23;20087;-82
2023/03/08 01:01:33;;;;;;;7.13;5.57;;;;;;;-0.99;100.00;91657.28;2558454;23;20127;-83
2023/03/08 01:02:34;;;;;;;8.07;6.15;;;;;;;-1.09;100.00;91658.81;2558919;23;20123;-82
2023/03/08 01:03:35;;;;;;;7.25;5.88;;;;;;;-1.19;100.00;91664.81;2558451;23;20016;-82
2023/03/08 01:04:36;;;;;;;6.43;5.45;;;;;;;-1.14;100.00;91659.19;2546116;23;20001;-83
2023/03/08 01:05:46;;;;;;;7.15;5.53;;;;;;;-1.10;100.00;91644.19;2558730;23;20000;-82
2023/03/08 01:06:47;;;;;;;6.18;5.57;;;;;;;-1.11;100.00;91632.22;2572525;23;20028;-82
2023/03/08 01:07:49;;;;;;;7.07;5.90;;;;;;;-1.09;100.00;91638.59;2583229;23;20008;-83
2023/03/08 01:08:50;;;;;;;6.70;5.55;;;;;;;-1.13;100.00;91637.84;2582996;23;20422;-82
2023/03/08 01:09:54;;;;;;;7.97;5.88;;;;;;;-1.13;100.00;91637.09;2570935;23;20088;-82
2023/03/08 01:10:57;;;;;;;7.70;5.63;;;;;;;-1.04;100.00;91635.56;2570395;23;20008;-82
2023/03/08 01:11:58;;;;;;;7.43;5.80;;;;;;;-1.12;100.00;91625.47;2546686;23;20064;-82
2023/03/08 01:12:59;;;;;;;7.88;5.68;;;;;;;-1.12;100.00;91618.34;2546228;23;20013;-83
2023/03/08 01:14:01;;;;;;;6.55;5.50;;;;;;;-1.14;100.00;91622.47;2570497;22;20012;-81
2023/03/08 01:15:04;;;;;;;5.97;5.35;;;;;;;-1.11;100.00;91625.09;2570509;23;20000;-82
2023/03/08 01:16:05;;;;;;;7.13;5.88;;;;;;;-1.10;100.00;91626.59;2546918;23;20460;-82
2023/03/08 01:17:06;;;;;;;8.38;6.10;;;;;;;-0.96;100.00;91625.81;2558778;23;20016;-82
2023/03/08 01:18:07;;;;;;;7.18;5.57;;;;;;;-0.97;100.00;91620.94;2583818;23;20000;-82
2023/03/08 01:19:09;;;;;;;5.97;5.28;;;;;;;-0.97;100.00;91613.06;2583681;23;20004;-82
2023/03/08 01:20:10;;;;;;;7.30;6.00;;;;;;;-0.93;100.00;91611.19;2559110;23;20129;-82
2023/03/08 01:21:12;;;;;;;6.10;5.50;;;;;;;-1.10;100.00;91610.88;2558523;23;20016;-83
2023/03/08 01:22:13;;;;;;;6.22;5.43;;;;;;;-1.12;100.00;91612.38;2571549;23;20009;-82
2023/03/08 01:23:14;;;;;;;7.38;5.85;;;;;;;-0.89;100.00;91604.06;2582947;23;20516;-82
2023/03/08 01:24:15;;;;;;;6.72;5.95;;;;;;;-0.95;100.00;91602.97;2583617;22;20058;-83
2023/03/08 01:25:16;;;;;;;6.30;5.70;;;;;;;-1.00;100.00;91598.84;2571264;23;20004;-82
2023/03/08 01:26:20;;;;;;;8.70;5.63;;;;;;;-1.13;100.00;91593.28;2558923;23;20559;-82
2023/03/08 01:27:37;;;;;;;6.45;5.38;;;;;;;-0.81;100.00;91593.16;2571694;23;20083;-82
2023/03/08 01:28:38;;;;;;;5.95;5.10;;;;;;;-0.92;100.00;91597.72;2571282;23;20005;-82
2023/03/08 01:29:39;;;;;;;6.90;5.47;;;;;;;-0.86;100.00;91598.06;2558636;23;20001;-82
2023/03/08 01:30:40;;;;;;;8.75;5.63;;;;;;;-1.03;100.00;91605.59;2583832;23;20004;-81
2023/03/08 01:31:42;;;;;;;7.63;5.82;;;;;;;-0.97;100.00;91597.34;2571079;23;20008;-83
2023/03/08 01:32:43;;;;;;;7.13;5.63;;;;;;;-0.94;100.00;91599.94;2558617;23;20005;-81
2023/03/08 01:33:44;;;;;;;6.35;5.53;;;;;;;-0.82;100.00;91606.66;2583509;23;20004;-82
2023/03/08 01:34:45;;;;;;;7.55;6.18;;;;;;;-0.99;100.00;91597.72;2583152;23;20405;-82
2023/03/08 01:35:47;;;;;;;7.13;5.72;;;;;;;-1.12;100.00;91584.28;2570950;23;20423;-82
2023/03/08 01:36:48;;;;;;;8.13;5.63;;;;;;;-1.22;100.00;91579.09;2571381;23;20093;-82
2023/03/08 01:37:52;;;;;;;7.88;6.05;;;;;;;-1.22;100.00;91565.97;2558526;23;20048;-82
2023/03/08 01:38:54;;;;;;;7.00;5.60;;;;;;;-1.26;100.00;91565.97;2571776;23;20004;-82
2023/03/08 01:39:56;;;;;;;6.68;6.00;;;;;;;-1.32;100.00;91557.78;2583313;23;20091;-82
2023/03/08 01:40:59;;;;;;;7.28;5.70;;;;;;;-1.35;100.00;91555.91;2583207;23;20004;-81
2023/03/08 01:42:06;;;;;;;7.95;6.28;;;;;;;-1.21;100.00;91544.63;2571067;23;20021;-82
2023/03/08 01:43:25;;;;;;;7.40;5.82;;;;;;;-1.26;100.00;91524.03;2571852;23;20004;-81
2023/03/08 01:44:28;;;;;;;6.13;5.32;;;;;;;-1.11;100.00;91522.84;2570459;23;19996;-82
2023/03/08 01:46:00;;;;;;;8.05;6.38;;;;;;;-1.17;100.00;91515.78;2546878;23;20365;-82
2023/03/08 01:47:01;;;;;;;7.68;5.90;;;;;;;-1.20;100.00;91509.41;2570906;23;20008;-81
2023/03/08 01:48:13;;;;;;;7.70;5.57;;;;;;;-1.21;100.00;91510.53;2570167;23;20015;-81
2023/03/08 01:49:27;;;;;;;9.18;6.00;;;;;;;-0.92;100.00;91516.41;2572782;23;20082;-82
2023/03/08 01:50:28;;;;;;;7.70;6.10;;;;;;;-1.01;100.00;91510.81;2560941;23;20005;-82
2023/03/08 01:51:40;;;;;;;7.38;5.93;;;;;;;-1.07;100.00;91515.72;2570662;23;20014;-82
2023/03/08 01:52:47;;;;;;;7.85;6.03;;;;;;;-1.08;100.00;91522.09;2583146;23;20084;-81
2023/03/08 01:53:48;;;;;;;8.10;6.18;;;;;;;-0.88;100.00;91526.88;2583418;23;20051;-82
2023/03/08 01:54:54;;;;;;;7.07;6.05;;;;;;;-0.92;100.00;91528.75;2582913;23;20054;-82
2023/03/08 01:55:56;;;;;;;8.82;6.25;;;;;;;-0.98;100.00;91535.53;2571616;23;19997;-82
2023/03/08 01:57:07;;;;;;;7.40;6.13;;;;;;;-1.03;100.00;91534.81;2583125;23;20003;-82
2023/03/08 01:58:13;;;;;;;7.28;5.90;;;;;;;-1.13;100.00;91540.09;2574548;23;20087;-82
2023/03/08 01:59:16;;;;;;;7.25;6.10;;;;;;;-1.13;100.00;91540.09;2559910;23;20029;-82
2023/03/08 02:00:23;;;;;;;6.40;5.80;;;;;;;-1.17;100.00;91549.84;2571914;23;20040;-82
2023/03/08 02:01:24;;;;;;;7.80;6.18;;;;;;;-1.24;100.00;91545.38;2572253;23;20012;-82
2023/03/08 02:02:31;;;;;;;8.35;6.28;;;;;;;-1.19;100.00;91544.97;2583932;23;20058;-82
2023/03/08 02:03:32;;;;;;;6.90;5.90;;;;;;;-1.23;100.00;91546.13;2570963;23;20008;-82
2023/03/08 02:04:34;;;;;;;7.72;6.00;;;;;;;-1.13;100.00;91547.97;2571521;23;20005;-82
2023/03/08 02:05:38;;;;;;;8.80;6.20;;;;;;;-0.98;100.00;91540.78;2570845;23;20143;-82
2023/03/08 02:06:41;;;;;;;7.72;6.05;;;;;;;-1.05;100.00;91536.31;2571302;23;20067;-82
2023/03/08 02:07:42;;;;;;;7.32;5.93;;;;;;;-1.14;100.00;91535.97;2571382;23;20000;-82
2023/03/08 02:08:44;;;;;;;9.02;6.68;;;;;;;-0.98;100.00;91536.28;2558159;23;20085;-82
2023/03/08 02:09:47;;;;;;;5.90;5.30;;;;;;;-0.87;100.00;91544.84;2559473;23;20463;-82
2023/03/08 02:10:51;;;;;;;8.20;6.10;;;;;;;-0.93;100.00;91535.88;2571403;23;20005;-81
2023/03/08 02:11:56;;;;;;;6.97;6.07;;;;;;;-0.95;100.00;91546.00;2559075;23;20013;-83
2023/03/08 02:12:57;;;;;;;6.97;6.25;;;;;;;-0.99;100.00;91544.53;2560217;23;20355;-82
2023/03/08 02:14:01;;;;;;;6.45;5.82;;;;;;;-1.01;100.00;91534.41;2558973;23;20059;-82
2023/03/08 02:15:05;;;;;;;7.22;5.82;;;;;;;-0.99;100.00;91534.03;2547563;23;20036;-82
2023/03/08 02:16:10;;;;;;;7.13;5.75;;;;;;;-0.93;100.00;91532.50;2559433;23;20011;-82
2023/03/08 02:17:11;;;;;;;8.35;6.20;;;;;;;-0.69;100.00;91517.78;2548417;23;20006;-82
2023/03/08 02:18:12;;;;;;;7.32;6.00;;;;;;;-0.70;100.00;91527.53;2559143;23;20008;-82
2023/03/08 02:19:19;;;;;;;7.93;6.20;;;;;;;-0.52;100.00;91517.66;2558496;23;20012;-82
2023/03/08 02:20:30;;;;;;;8.18;5.85;;;;;;;-0.49;100.00;91518.03;2548816;23;20488;-82
2023/03/08 02:21:33;;;;;;;6.40;5.55;;;;;;;-0.73;100.00;91523.03;2550289;23;20005;-81
2023/03/08 02:22:42;;;;;;;7.55;5.80;;;;;;;-0.53;100.00;91516.19;2559252;23;20009;-81
2023/03/08 02:23:43;;;;;;;7.55;6.25;;;;;;;-0.67;100.00;91516.25;2559727;23;20001;-82
2023/03/08 02:24:45;;;;;;;8.15;5.88;;;;;;;-0.49;100.00;91512.78;2546434;23;20009;-82
2023/03/08 02:25:58;;;;;;;7.10;5.80;;;;;;;-0.56;100.00;91501.19;2558867;23;20309;-81
2023/03/08 02:27:06;;;;;;;6.18;5.28;;;;;;;-0.53;100.00;91503.06;2561044;23;20009;-83
2023/03/08 02:28:07;;;;;;;7.10;5.55;;;;;;;-0.28;100.00;91502.13;2549073;23;20033;-83
2023/03/08 02:29:12;;;;;;;6.18;5.57;;;;;;;-0.61;100.00;91503.50;2559015;23;20135;-82
2023/03/08 02:30:15;;;;;;;6.35;5.43;;;;;;;-0.48;100.00;91503.75;2570366;23;20001;-81
2023/03/08 02:31:17;;;;;;;6.65;5.97;;;;;;;-0.47;100.00;91500.78;2547045;23;20020;-82
2023/03/08 02:32:19;;;;;;;7.00;6.00;;;;;;;-0.68;100.00;91508.78;2546332;23;20009;-82
2023/03/08 02:33:21;;;;;;;8.35;6.13;;;;;;;-0.74;100.00;91500.56;2546772;23;20005;-82
2023/03/08 02:34:22;;;;;;;8.85;5.75;;;;;;;-0.82;100.00;91501.75;2558890;23;20004;-83
2023/03/08 02:35:24;;;;;;;6.45;5.85;;;;;;;-0.59;100.00;91494.09;2570926;23;20000;-82
2023/03/08 02:36:26;;;;;;;6.50;5.65;;;;;;;-0.71;100.00;91491.91;2546064;23;20006;-82
2023/03/08 02:37:27;;;;;;;6.65;5.90;;;;;;;-0.79;100.00;91498.34;2558741;23;20052;-82
2023/03/08 02:38:28;;;;;;;6.63;5.88;;;;;;;-0.69;100.00;91497.53;2570496;23;20054;-82
2023/03/08 02:39:30;;;;;;;6.60;5.63;;;;;;;-0.65;100.00;91489.66;2582949;23;20008;-82
2023/03/08 02:40:31;;;;;;;6.65;5.95;;;;;;;-0.78;100.00;91494.59;2545828;23;20005;-82
2023/03/08 02:41:32;;;;;;;7.85;6.00;;;;;;;-0.83;100.00;91495.00;2570870;23;20354;-81
2023/03/08 02:42:41;;;;;;;6.47;5.53;;;;;;;-0.69;100.00;91488.94;2583407;23;20011;-82
2023/03/08 02:43:43;;;;;;;8.23;6.00;;;;;;;-0.70;100.00;91488.19;2560137;23;20017;-82
2023/03/08 02:44:45;;;;;;;6.72;5.32;;;;;;;-0.78;100.00;91497.22;2558541;23;20009;-82
2023/03/08 02:45:46;;;;;;;6.68;5.40;;;;;;;-0.91;100.00;91483.81;2558404;23;20573;-82
2023/03/08 02:46:47;;;;;;;7.43;5.68;;;;;;;-0.84;100.00;91475.88;2533846;23;20014;-82
2023/03/08 02:47:48;;;;;;;6.97;5.47;;;;;;;-0.89;100.00;91483.41;2534083;23;20294;-83
2023/03/08 02:48:51;;;;;;;6.25;5.55;;;;;;;-0.96;100.00;91480.84;2546458;23;20008;-82
2023/03/08 02:49:52;;;;;;;7.65;5.82;;;;;;;-0.88;100.00;91469.94;2558959;23;20004;-82
2023/03/08 02:50:53;;;;;;;6.15;5.45;;;;;;;-0.86;100.00;91483.41;2546154;23;20317;-81
2023/03/08 02:51:54;;;;;;;7.55;6.18;;;;;;;-0.91;100.00;91477.81;2533733;23;20026;-81
2023/03/08 02:52:57;;;;;;;6.93;5.40;;;;;;;-0.85;100.00;91473.66;2534098;23;20508;-82
2023/03/08 02:54:05;;;;;;;8.32;6.30;;;;;;;-0.93;100.00;91472.19;2534462;23;20380;-82
2023/03/08 02:55:07;;;;;;;8.30;6.45;;;;;;;-0.98;100.00;91462.84;2548905;23;20053;-82
2023/03/08 02:56:08;;;;;;;7.07;6.13;;;;;;;-0.99;100.00;91466.63;2570879;23;20023;-82
2023/03/08 02:57:09;;;;;;;7.05;5.88;;;;;;;-0.97;100.00;91468.84;2570674;23;20001;-82
2023/03/08 02:58:10;;;;;;;7.50;5.65;;;;;;;-1.02;100.00;91460.25;2545950;23;20013;-82
2023/03/08 02:59:11;;;;;;;6.40;5.57;;;;;;;-0.86;100.00;91461.69;2546201;23;20025;-82
2023/03/08 03:00:13;;;;;;;6.45;5.32;;;;;;;-0.83;100.00;91459.03;2569981;23;20024;-82
2023/03/08 03:01:14;;;;;;;6.88;5.80;;;;;;;-0.90;100.00;91455.69;2546286;23;20009;-82
2023/03/08 03:02:15;;;;;;;6.70;5.85;;;;;;;-1.00;100.00;91449.41;2545766;23;20006;-82
2023/03/08 03:03:16;;;;;;;7.22;5.43;;;;;;;-0.89;100.00;91451.94;2570740;23;20603;-82
2023/03/08 03:04:18;;;;;;;6.78;5.47;;;;;;;-0.98;100.00;91446.38;2558136;23;20005;-82
2023/03/08 03:05:19;;;;;;;7.40;5.80;;;;;;;-1.00;100.00;91443.41;2546125;23;20416;-82
2023/03/08 03:06:22;;;;;;;7.32;6.18;;;;;;;-0.94;100.00;91453.09;2558359;23;20013;-82
2023/03/08 03:07:23;;;;;;;7.18;6.00;;;;;;;-0.92;100.00;91439.59;2557381;23;20092;-82
2023/03/08 03:08:28;;;;;;;6.45;5.80;;;;;;;-0.96;100.00;91436.28;2558114;23;20005;-81
2023/03/08 03:09:30;;;;;;;7.45;5.70;;;;;;;-0.96;100.00;91433.66;2547631;23;20119;-82
2023/03/08 03:10:33;;;;;;;6.88;5.53;;;;;;;-0.86;100.00;91433.56;2545907;23;20487;-82
2023/03/08 03:11:34;;;;;;;6.30;5.50;;;;;;;-0.78;100.00;91432.38;2546400;23;20435;-83
2023/03/08 03:12:35;;;;;;;5.97;5.38;;;;;;;-0.81;100.00;91430.53;2557900;23;20072;-82
2023/03/08 03:13:36;;;;;;;6.85;6.13;;;;;;;-0.89;100.00;91421.22;2557549;23;20495;-83
2023/03/08 03:14:39;;;;;;;8.52;6.00;;;;;;;-0.85;100.00;91414.06;2558056;23;20447;-82
2023/03/08 03:15:41;;;;;;;6.57;5.97;;;;;;;-0.91;100.00;91420.88;2570475;23;20001;-82
2023/03/08 03:16:43;;;;;;;8.07;5.90;;;;;;;-0.93;100.00;91412.63;2558106;23;20005;-82
2023/03/08 03:17:44;;;;;;;7.50;5.53;;;;;;;-0.96;100.00;91410.06;2546058;23;20029;-82
2023/03/08 03:18:46;;;;;;;6.72;5.97;;;;;;;-0.90;100.00;91411.13;2558980;23;20080;-82
2023/03/08 03:19:48;;;;;;;6.10;5.50;;;;;;;-0.89;100.00;91404.75;2558666;23;20096;-82
2023/03/08 03:20:50;;;;;;;6.75;6.05;;;;;;;-0.92;100.00;91406.28;2558616;23;20080;-82
2023/03/08 03:21:51;;;;;;;6.70;5.57;;;;;;;-0.92;100.00;91403.66;2570287;23;20005;-82
2023/03/08 03:22:53;;;;;;;7.75;6.30;;;;;;;-0.93;100.00;91396.88;2546036;23;20037;-80
2023/03/08 03:23:55;;;;;;;6.45;5.85;;;;;;;-0.93;100.00;91391.66;2534821;23;20476;-82
2023/03/08 03:24:57;;;;;;;7.00;6.22;;;;;;;-0.95;100.00;91388.69;2546827;23;20006;-83
2023/03/08 03:26:12;;;;;;;6.35;5.75;;;;;;;-0.96;100.00;91397.69;2534906;23;20056;-82
2023/03/08 03:27:14;;;;;;;6.53;5.82;;;;;;;-0.91;100.00;91393.91;2540040;23;20672;-82
2023/03/08 03:28:15;;;;;;;6.25;5.60;;;;;;;-0.91;100.00;91393.91;2546168;23;20009;-82
2023/03/08 03:29:17;;;;;;;6.32;5.22;;;;;;;-0.93;100.00;91386.41;2546200;23;20021;-82
2023/03/08 03:30:18;;;;;;;6.40;5.80;;;;;;;-0.97;100.00;91382.31;2546346;23;20005;-82
2023/03/08 03:31:21;;;;;;;6.28;5.63;;;;;;;-0.95;100.00;91386.06;2558757;23;20388;-82
2023/03/08 03:32:22;;;;;;;7.28;5.60;;;;;;;-0.95;100.00;91387.94;2535241;23;20098;-82
2023/03/08 03:33:23;;;;;;;6.63;5.63;;;;;;;-0.90;100.00;91383.00;2545702;23;20011;-83
2023/03/08 03:34:24;;;;;;;6.28;5.72;;;;;;;-0.86;100.00;91388.25;2558324;23;20028;-82
2023/03/08 03:35:26;;;;;;;8.40;5.80;;;;;;;-0.89;100.00;91383.75;2558108;23;20136;-82
2023/03/08 03:36:28;;;;;;;5.93;5.32;;;;;;;-0.70;100.00;91382.47;2558664;23;20052;-82
2023/03/08 03:37:29;;;;;;;7.47;5.85;;;;;;;-0.82;100.00;91383.72;2558776;23;20005;-82
2023/03/08 03:38:31;;;;;;;7.53;5.47;;;;;;;-0.73;100.00;91378.03;2558265;23;20001;-83
2023/03/08 03:39:37;;;;;;;7.22;5.93;;;;;;;-0.70;100.00;91383.25;2570637;23;20024;-82
2023/03/08 03:40:38;;;;;;;6.30;5.57;;;;;;;-0.82;100.00;91384.47;2582172;22;20091;-82
2023/03/08 03:41:40;;;;;;;6.45;5.53;;;;;;;-0.82;100.00;91378.47;2558222;23;20008;-82
2023/03/08 03:42:41;;;;;;;6.13;5.53;;;;;;;-0.78;100.00;91387.81;2534303;23;20006;-80
2023/03/08 03:43:44;;;;;;;5.78;5.15;;;;;;;-0.79;100.00;91382.91;2556101;23;20436;-82
2023/03/08 03:44:45;;;;;;;7.28;5.97;;;;;;;-0.79;100.00;91377.69;2584308;22;20068;-82
2023/03/08 03:45:57;;;;;;;6.10;5.50;;;;;;;-0.89;100.00;91373.28;2572406;23;20007;-83
2023/03/08 03:47:01;;;;;;;6.60;5.88;;;;;;;-0.95;100.00;91372.19;2564343;23;20005;-82
2023/03/08 03:48:03;;;;;;;8.90;6.30;;;;;;;-0.94;100.00;91373.69;2559990;23;20008;-82
2023/03/08 03:49:05;;;;;;;6.22;5.65;;;;;;;-0.90;100.00;91372.53;2559318;23;20451;-82
2023/03/08 03:50:06;;;;;;;6.70;5.70;;;;;;;-0.91;100.00;91372.91;2559620;23;20171;-82
2023/03/08 03:51:17;;;;;;;6.15;5.50;;;;;;;-0.98;100.00;91368.47;2571192;23;20001;-82
2023/03/08 03:52:18;;;;;;;6.88;5.45;;;;;;;-0.84;100.00;91367.59;2560815;23;20555;-82
2023/03/08 03:53:19;;;;;;;6.25;5.40;;;;;;;-1.00;100.00;91370.75;2558899;23;20005;-82
2023/03/08 03:54:20;;;;;;;6.20;5.60;;;;;;;-0.99;100.00;91371.47;2559165;23;20048;-82
2023/03/08 03:55:22;;;;;;;6.53;5.50;;;;;;;-1.01;100.00;91369.22;2559622;23;20059;-82
2023/03/08 03:56:25;;;;;;;6.03;5.43;;;;;;;-1.06;100.00;91367.03;2559700;23;20012;-83
2023/03/08 03:57:26;;;;;;;6.40;5.68;;;;;;;-1.11;100.00;91357.69;2559435;23;20001;-82
2023/03/08 03:58:29;;;;;;;6.47;5.80;;;;;;;-1.12;100.00;91366.69;2558644;23;20052;-82
2023/03/08 03:59:30;;;;;;;6.25;5.50;;;;;;;-1.12;100.00;91366.69;2571060;23;20012;-83
2023/03/08 04:00:31;;;;;;;7.30;6.28;;;;;;;-1.14;100.00;91361.09;2571626;23;20000;-82
2023/03/08 04:01:32;;;;;;;6.78;5.60;;;;;;;-1.22;100.00;91364.91;2559000;23;20009;-82
2023/03/08 04:02:36;;;;;;;7.15;5.95;;;;;;;-1.10;100.00;91366.28;2558439;23;20001;-82
2023/03/08 04:03:38;;;;;;;6.60;5.88;;;;;;;-1.11;100.00;91368.19;2571911;23;20340;-83
2023/03/08 04:04:39;;;;;;;6.18;5.43;;;;;;;-1.15;100.00;91370.06;2558672;23;20096;-82
2023/03/08 04:05:40;;;;;;;6.40;5.80;;;;;;;-1.18;100.00;91370.13;2558774;23;20300;-82
2023/03/08 04:06:42;;;;;;;6.00;5.40;;;;;;;-1.20;100.00;91372.38;2558825;23;20020;-84
2023/03/08 04:07:43;;;;;;;6.00;5.40;;;;;;;-1.22;100.00;91370.13;2547535;23;20424;-82
2023/03/08 04:08:44;;;;;;;5.85;5.25;;;;;;;-1.30;100.00;91373.94;2559350;23;20000;-83
2023/03/08 04:09:46;;;;;;;6.63;5.80;;;;;;;-1.33;100.00;91370.19;2547539;23;20068;-83
2023/03/08 04:10:47;;;;;;;6.25;5.53;;;;;;;-1.35;100.00;91375.06;2560300;23;20032;-82
2023/03/08 04:11:49;;;;;;;6.88;6.05;;;;;;;-1.35;100.00;91374.34;2572459;23;20004;-83
2023/03/08 04:12:52;;;;;;;5.60;5.10;;;;;;;-1.40;100.00;91380.72;2572652;23;20028;-82
2023/03/08 04:13:55;;;;;;;6.45;5.80;;;;;;;-1.42;100.00;91382.22;2559766;23;20478;-83
2023/03/08 04:14:57;;;;;;;5.88;5.28;;;;;;;-1.42;100.00;91377.72;2559748;23;20463;-83
2023/03/08 04:15:59;;;;;;;7.60;5.63;;;;;;;-1.42;100.00;91374.38;2571294;23;20082;-82
2023/03/08 04:17:01;;;;;;;6.35;5.50;;;;;;;-1.42;100.00;91374.38;2571553;23;20000;-82
2023/03/08 04:18:02;;;;;;;6.40;5.80;;;;;;;-1.47;100.00;91370.28;2559003;23;20133;-82
2023/03/08 04:19:08;;;;;;;6.28;5.68;;;;;;;-1.47;100.00;91374.78;2559104;23;20001;-82
2023/03/08 04:20:10;;;;;;;5.60;5.10;;;;;;;-1.47;100.00;91365.03;2571841;23;20035;-83
2023/03/08 04:21:13;;;;;;;6.10;5.50;;;;;;;-1.46;100.00;91355.31;2571123;23;20012;-82
2023/03/08 04:22:14;;;;;;;6.22;5.43;;;;;;;-1.46;100.00;91353.41;2570426;23;20059;-82
2023/03/08 04:23:15;;;;;;;7.13;5.40;;;;;;;-1.54;100.00;91351.97;2570573;23;20435;-82
2023/03/08 04:24:18;;;;;;;6.25;5.65;;;;;;;-1.47;100.00;91343.34;2570854;23;20355;-81
2023/03/08 04:25:19;;;;;;;7.10;6.07;;;;;;;-1.43;100.00;91349.31;2558126;23;20009;-82
2023/03/08 04:26:22;;;;;;;6.75;5.88;;;;;;;-1.46;100.00;91355.31;2546624;23;20076;-83
2023/03/08 04:27:23;;;;;;;7.55;5.97;;;;;;;-1.48;100.00;91360.94;2571782;22;20007;-81
2023/03/08 04:28:24;;;;;;;6.35;5.68;;;;;;;-1.47;100.00;91357.19;2570291;23;20444;-82
2023/03/08 04:29:26;;;;;;;8.10;6.03;;;;;;;-1.47;100.00;91359.81;2571219;23;20000;-82
2023/03/08 04:30:28;;;;;;;6.45;5.78;;;;;;;-1.42;100.00;91356.03;2558026;23;20047;-82
2023/03/08 04:31:30;;;;;;;6.70;5.05;;;;;;;-1.43;100.00;91357.16;2558591;23;20076;-82
2023/03/08 04:32:32;;;;;;;6.00;5.43;;;;;;;-1.41;100.00;91353.00;2570615;23;20059;-83
2023/03/08 04:33:33;;;;;;;6.15;5.45;;;;;;;-1.40;100.00;91353.78;2570476;23;20000;-82
2023/03/08 04:34:34;;;;;;;6.03;5.03;;;;;;;-1.41;100.00;91363.50;2546185;23;20005;-82
2023/03/08 04:35:37;;;;;;;5.93;5.35;;;;;;;-1.41;100.00;91360.88;2570407;23;20036;-82
2023/03/08 04:36:38;;;;;;;6.43;5.80;;;;;;;-1.42;100.00;91358.66;2558184;23;20127;-82
2023/03/08 04:37:39;;;;;;;6.15;5.35;;;;;;;-1.43;100.00;91357.91;2558258;23;20013;-82
2023/03/08 04:38:40;;;;;;;9.00;6.72;;;;;;;-1.39;100.00;91355.28;2570403;23;20009;-82
2023/03/08 04:39:41;;;;;;;12.73;7.40;;;;;;;-1.39;100.00;91350.03;2570569;23;20015;-82
2023/03/08 04:41:00;;;;;;;8.35;6.10;;;;;;;-1.35;100.00;91350.75;2571001;23;20004;-82
2023/03/08 04:42:01;;;;;;;6.30;5.63;;;;;;;-1.35;100.00;91350.75;2583356;22;20008;-82
2023/03/08 04:43:02;;;;;;;9.63;5.97;;;;;;;-1.34;100.00;91355.59;2570381;23;20013;-81
2023/03/08 04:44:03;;;;;;;7.00;6.20;;;;;;;-1.40;100.00;91354.53;2558348;23;20012;-82
2023/03/08 04:45:06;;;;;;;6.25;5.65;;;;;;;-1.34;100.00;91352.25;2558479;23;20005;-82
2023/03/08 04:46:07;;;;;;;6.93;6.25;;;;;;;-1.34;100.00;91347.75;2571202;23;20070;-81
2023/03/08 04:47:08;;;;;;;7.55;5.97;;;;;;;-1.22;100.00;91343.94;2570740;23;20087;-83
2023/03/08 04:48:10;;;;;;;6.80;5.90;;;;;;;-1.22;100.00;91343.19;2570795;23;20004;-82
2023/03/08 04:49:11;;;;;;;6.57;5.63;;;;;;;-1.26;100.00;91337.97;2570954;23;20000;-82
2023/03/08 04:50:13;;;;;;;7.22;6.10;;;;;;;-1.28;100.00;91342.81;2558387;23;20104;-82
2023/03/08 04:51:15;;;;;;;10.13;6.63;;;;;;;-1.23;100.00;91342.41;2558026;23;20005;-82